createdAt,value
2019-05-19T00:00:47.474Z,12.40
2019-05-19T00:03:15.924Z,12.30
2019-05-19T00:05:44.210Z,12.40
2019-05-19T00:08:34.057Z,12.40
2019-05-19T00:11:16.587Z,12.40
2019-05-19T00:14:15.587Z,12.40
2019-05-19T00:16:52.694Z,12.50
2019-05-19T00:19:31.497Z,12.50
2019-05-19T00:22:01.638Z,12.60
2019-05-19T00:24:33.393Z,12.60
2019-05-19T00:30:01.483Z,12.50
2019-05-19T00:32:34.960Z,12.50
2019-05-19T00:35:08.942Z,12.50
2019-05-19T00:37:48.428Z,12.50
2019-05-19T00:40:16.938Z,12.50
2019-05-19T00:42:46.007Z,12.50
2019-05-19T00:45:32.125Z,12.50
2019-05-19T00:47:59.683Z,12.50
2019-05-19T00:53:33.451Z,12.50
2019-05-19T00:55:54.972Z,12.50
2019-05-19T00:58:24.379Z,12.50
2019-05-19T01:00:51.960Z,12.40
2019-05-19T01:03:19.866Z,12.40
2019-05-19T01:06:05.292Z,12.40
2019-05-19T01:08:46.167Z,12.50
2019-05-19T01:11:17.049Z,12.60
2019-05-19T01:13:44.757Z,12.50
2019-05-19T01:16:12.472Z,12.50
2019-05-19T01:18:40.047Z,12.50
2019-05-19T01:21:07.811Z,12.40
2019-05-19T01:23:35.731Z,12.40
2019-05-19T01:26:03.635Z,12.30
2019-05-19T01:28:31.372Z,12.30
2019-05-19T01:30:59.199Z,12.40
2019-05-19T01:33:26.704Z,12.30
2019-05-19T01:35:54.586Z,12.30
2019-05-19T01:38:22.087Z,12.30
2019-05-19T01:40:49.838Z,12.40
2019-05-19T01:43:17.512Z,12.30
2019-05-19T01:45:45.388Z,12.30
2019-05-19T01:48:13.376Z,12.30
2019-05-19T01:50:41.146Z,12.30
2019-05-19T01:53:08.783Z,12.30
2019-05-19T01:55:36.521Z,12.30
2019-05-19T01:58:04.101Z,12.30
2019-05-19T02:00:32.028Z,12.20
2019-05-19T02:02:59.918Z,12.30
2019-05-19T02:05:29.560Z,12.40
2019-05-19T02:07:57.022Z,12.40
2019-05-19T02:10:24.366Z,12.40
2019-05-19T02:13:01.478Z,12.30
2019-05-19T02:15:29.813Z,12.10
2019-05-19T02:17:57.442Z,12.10
2019-05-19T02:20:33.297Z,12.00
2019-05-19T02:22:54.324Z,12.10
2019-05-19T02:25:21.807Z,12.10
2019-05-19T02:27:49.214Z,12.20
2019-05-19T02:30:18.992Z,12.10
2019-05-19T02:32:46.792Z,12.00
2019-05-19T02:35:14.745Z,11.90
2019-05-19T02:37:42.376Z,12.00
2019-05-19T02:40:11.794Z,12.00
2019-05-19T02:42:41.692Z,11.90
2019-05-19T02:45:10.455Z,11.90
2019-05-19T02:47:41.881Z,11.90
2019-05-19T02:50:09.854Z,11.90
2019-05-19T02:52:39.959Z,12.00
2019-05-19T02:55:08.064Z,12.00
2019-05-19T02:57:36.789Z,12.00
2019-05-19T03:00:06.111Z,12.10
2019-05-19T03:02:34.316Z,12.20
2019-05-19T03:05:01.941Z,12.20
2019-05-19T03:07:29.393Z,12.20
2019-05-19T03:09:56.923Z,12.10
2019-05-19T03:12:24.344Z,12.20
2019-05-19T03:14:51.975Z,12.10
2019-05-19T03:17:19.624Z,12.00
2019-05-19T03:19:47.211Z,12.00
2019-05-19T03:22:14.752Z,12.00
2019-05-19T03:24:42.153Z,11.90
2019-05-19T03:27:09.729Z,12.00
2019-05-19T03:29:42.024Z,12.10
2019-05-19T03:32:35.063Z,12.10
2019-05-19T03:35:02.559Z,12.00
2019-05-19T03:37:30.154Z,12.10
2019-05-19T03:39:57.660Z,12.10
2019-05-19T03:42:25.651Z,12.00
2019-05-19T03:44:53.712Z,12.00
2019-05-19T03:47:21.384Z,11.90
2019-05-19T03:50:09.762Z,11.90
2019-05-19T03:52:37.369Z,11.90
2019-05-19T03:55:05.628Z,11.90
2019-05-19T03:57:33.461Z,12.00
2019-05-19T04:00:01.038Z,12.00
2019-05-19T04:02:28.796Z,12.00
2019-05-19T04:04:56.191Z,12.00
2019-05-19T04:07:23.630Z,12.00
2019-05-19T04:09:51.157Z,12.10
2019-05-19T04:12:18.705Z,12.10
2019-05-19T04:14:46.223Z,12.20
2019-05-19T04:17:13.673Z,12.20
2019-05-19T04:19:41.318Z,12.10
2019-05-19T04:22:08.817Z,12.20
2019-05-19T04:24:40.352Z,12.20
2019-05-19T04:27:07.838Z,12.20
2019-05-19T04:29:39.214Z,12.20
2019-05-19T04:32:04.762Z,12.20
2019-05-19T04:34:32.107Z,12.20
2019-05-19T04:36:59.581Z,12.20
2019-05-19T04:39:27.178Z,12.20
2019-05-19T04:41:55.116Z,12.20
2019-05-19T04:44:22.651Z,12.40
2019-05-19T04:46:50.247Z,12.30
2019-05-19T04:49:17.654Z,12.30
2019-05-19T04:51:45.172Z,12.30
2019-05-19T04:54:12.948Z,12.30
2019-05-19T04:56:40.809Z,12.40
2019-05-19T04:59:08.306Z,12.50
2019-05-19T05:01:35.858Z,12.50
2019-05-19T05:04:04.228Z,12.50
2019-05-19T05:06:31.629Z,12.50
2019-05-19T05:08:59.208Z,12.60
2019-05-19T05:11:26.741Z,12.60
2019-05-19T05:13:55.380Z,12.60
2019-05-19T05:16:32.802Z,12.60
2019-05-19T05:19:00.452Z,12.60
2019-05-19T05:21:28.045Z,12.60
2019-05-19T05:23:55.609Z,12.60
2019-05-19T05:26:23.216Z,12.60
2019-05-19T05:28:50.714Z,12.50
2019-05-19T05:31:18.369Z,12.50
2019-05-19T05:34:03.189Z,12.60
2019-05-19T05:36:48.390Z,12.70
2019-05-19T05:39:29.801Z,12.80
2019-05-19T05:42:06.075Z,12.90
2019-05-19T05:44:35.354Z,13.10
2019-05-19T05:47:04.327Z,13.30
2019-05-19T05:50:02.063Z,13.40
2019-05-19T05:52:45.570Z,13.30
2019-05-19T05:55:21.970Z,13.50
2019-05-19T05:57:58.491Z,13.60
2019-05-19T06:00:36.440Z,13.60
2019-05-19T06:03:07.996Z,13.50
2019-05-19T06:05:55.233Z,13.50
2019-05-19T06:10:08.457Z,13.60
2019-05-19T06:11:22.106Z,13.60
2019-05-19T06:17:20.494Z,13.80
2019-05-19T06:19:57.529Z,13.80
2019-05-19T06:25:34.853Z,13.70
2019-05-19T06:28:03.612Z,13.90
2019-05-19T06:30:33.642Z,14.00
2019-05-19T06:33:03.422Z,13.90
2019-05-19T06:35:31.514Z,14.00
2019-05-19T06:39:11.267Z,14.20
2019-05-19T06:41:44.709Z,14.40
2019-05-19T06:44:16.312Z,14.60
2019-05-19T06:46:44.774Z,14.70
2019-05-19T06:49:13.428Z,14.90
2019-05-19T06:51:42.147Z,14.80
2019-05-19T06:58:10.643Z,15.00
2019-05-19T07:00:45.368Z,14.90
2019-05-19T07:03:36.520Z,14.70
2019-05-19T07:06:12.295Z,15.00
2019-05-19T07:08:43.238Z,15.10
2019-05-19T07:11:22.060Z,15.10
2019-05-19T07:13:50.339Z,15.00
2019-05-19T07:16:18.787Z,15.10
2019-05-19T07:18:46.520Z,15.30
2019-05-19T07:21:37.948Z,15.40
2019-05-19T07:24:14.698Z,15.80
2019-05-19T07:26:48.275Z,16.00
2019-05-19T07:29:18.081Z,16.30
2019-05-19T07:31:45.726Z,16.40
2019-05-19T07:34:14.288Z,16.30
2019-05-19T07:36:45.081Z,16.10
2019-05-19T07:39:33.329Z,16.20
2019-05-19T07:46:09.687Z,16.70
2019-05-19T07:56:07.591Z,17.10
2019-05-19T08:03:04.215Z,16.90
2019-05-19T08:05:48.018Z,16.90
2019-05-19T08:12:19.888Z,17.40
2019-05-19T08:15:22.367Z,17.60
2019-05-19T08:18:00.367Z,17.70
2019-05-19T08:21:24.431Z,17.50
2019-05-19T08:24:04.857Z,17.50
2019-05-19T08:30:56.354Z,17.60
2019-05-19T08:38:07.198Z,17.20
2019-05-19T08:59:47.267Z,17.00
2019-05-19T09:03:22.107Z,17.10
2019-05-19T09:06:53.682Z,16.70
2019-05-19T09:20:55.482Z,16.30
2019-05-19T09:45:47.435Z,16.80
2019-05-19T10:01:14.334Z,17.80
2019-05-19T10:19:48.479Z,18.10
2019-05-19T10:23:04.630Z,18.10
2019-05-19T10:40:14.667Z,18.30
2019-05-19T12:20:43.101Z,20.00
2019-05-19T12:27:30.671Z,19.90
2019-05-19T12:30:24.527Z,20.20
2019-05-19T12:44:18.438Z,19.70
2019-05-19T13:02:29.551Z,19.90
2019-05-19T13:06:01.085Z,20.20
2019-05-19T13:12:13.589Z,20.30
2019-05-19T13:12:24.801Z,20.30
2019-05-19T13:29:32.137Z,20.70
2019-05-19T13:32:13.529Z,20.70
2019-05-19T13:43:19.971Z,20.70
2019-05-19T13:50:45.814Z,21.30
2019-05-19T14:07:24.971Z,21.70
2019-05-19T14:10:20.985Z,22.20
2019-05-19T14:21:48.396Z,21.50
2019-05-19T14:42:49.415Z,22.20
2019-05-19T14:55:59.093Z,21.70
2019-05-19T14:58:56.752Z,21.50
2019-05-19T15:01:41.455Z,21.30
2019-05-19T15:05:43.968Z,21.00
2019-05-19T15:09:06.190Z,21.00
2019-05-19T15:20:07.519Z,19.80
2019-05-19T15:23:11.511Z,19.70
2019-05-19T15:34:01.375Z,20.80
2019-05-19T15:37:39.741Z,20.60
2019-05-19T15:41:06.354Z,20.40
2019-05-19T15:53:08.159Z,20.50
2019-05-19T16:11:59.247Z,20.20
2019-05-19T16:15:10.514Z,20.20
2019-05-19T16:18:58.165Z,20.40
2019-05-19T16:21:57.358Z,20.70
2019-05-19T16:24:36.287Z,21.20
2019-05-19T16:27:18.422Z,21.40
2019-05-19T16:33:38.037Z,20.90
2019-05-19T16:36:17.032Z,20.20
2019-05-19T16:54:16.431Z,19.70
2019-05-19T16:57:17.416Z,19.50
2019-05-19T17:19:00.263Z,18.80
2019-05-19T17:29:00.866Z,18.60
2019-05-19T17:31:41.454Z,18.50
2019-05-19T17:56:17.844Z,18.10
2019-05-19T17:58:58.613Z,17.90
2019-05-19T18:02:05.611Z,17.90
2019-05-19T18:04:54.548Z,17.90
2019-05-19T18:10:54.904Z,17.60
2019-05-19T18:13:41.482Z,17.70
2019-05-19T18:20:06.292Z,17.50
2019-05-19T18:23:40.406Z,17.40
2019-05-19T18:32:57.174Z,17.00
2019-05-19T18:35:35.421Z,16.90
2019-05-19T18:38:09.632Z,16.80
2019-05-19T18:43:43.970Z,16.80
2019-05-19T18:46:17.878Z,16.70
2019-05-19T18:48:47.669Z,16.70
2019-05-19T18:55:30.169Z,16.50
2019-05-19T18:58:09.203Z,16.40
2019-05-19T19:00:38.924Z,16.30
2019-05-19T19:06:56.901Z,16.00
2019-05-19T19:09:33.649Z,15.90
2019-05-19T19:12:02.215Z,15.80
2019-05-19T19:15:19.996Z,15.70
2019-05-19T19:17:52.396Z,15.70
2019-05-19T19:20:29.194Z,15.60
2019-05-19T19:23:00.023Z,15.70
2019-05-19T19:25:33.553Z,15.60
2019-05-19T19:32:07.522Z,15.60
2019-05-19T19:35:15.326Z,15.60
2019-05-19T19:37:56.165Z,15.50
2019-05-19T19:43:40.038Z,15.50
2019-05-19T19:51:20.241Z,15.40
2019-05-19T19:53:56.196Z,15.40
2019-05-19T19:59:13.837Z,15.40
2019-05-19T20:02:03.858Z,15.40
2019-05-19T20:04:48.055Z,15.30
2019-05-19T20:07:20.982Z,15.10
2019-05-19T20:10:08.622Z,15.10
2019-05-19T20:16:39.763Z,14.80
2019-05-19T20:19:44.665Z,14.70
2019-05-19T20:22:45.220Z,14.70
2019-05-19T20:25:22.585Z,14.70
2019-05-19T20:29:02.827Z,14.70
2019-05-19T20:35:21.078Z,14.80
2019-05-19T20:41:56.273Z,14.80
2019-05-19T20:51:46.929Z,14.70
2019-05-19T21:01:49.105Z,14.50
2019-05-19T21:16:13.690Z,14.70
2019-05-19T21:19:04.837Z,14.60
2019-05-19T21:21:24.297Z,14.60
2019-05-19T21:29:30.526Z,14.70
2019-05-19T21:32:00.256Z,14.60
2019-05-19T21:42:13.181Z,14.70
2019-05-19T21:45:14.757Z,14.60
2019-05-19T21:48:03.018Z,14.60
2019-05-19T22:22:46.201Z,14.40
2019-05-19T22:26:30.705Z,14.40
2019-05-19T22:44:26.754Z,14.30
2019-05-19T22:55:14.364Z,14.30
2019-05-19T23:05:41.448Z,14.30
2019-05-19T23:20:27.653Z,14.20
2019-05-19T23:29:47.027Z,14.10
2019-05-19T23:33:00.237Z,14.10
2019-05-19T23:38:52.450Z,14.20
2019-05-19T23:49:33.965Z,14.20
